EVLA

Liepāja International Airport

Liepāja, Latvia
METAR EVLA 110250Z AUTO 08004KT 9999 FEW005/// BKN011/// OVC017/// 01/01 Q1003
Observed Flight Rules
Dec-11 @ 02:50 UTC (25 minutes ago) Marginal Visual Flight Rules
Wind Visibility Clouds
80° at 4 knots 10,000+ meters
  • Few at 500' AGL
  • Broken at 1,100' AGL
  • Overcast at 1,700' AGL
Temperatures Readings
Current 1°C / 34°F
Dewpoint 1°C / 34°F
Humidity 100%
Altimeter 29.62" Hg
Pressure 1003 hPa
Elevation 4
METAR EVLA 110250Z AUTO 08004KT 9999 FEW005/// BKN011/// OVC017/// 01/01 Q1003
Observed Flight Rules
Dec-11 @ 02:50 UTC
(25 minutes ago)
MVFR
Wind Visibility
80° at 4 knots 10,000+ meters
Clouds
  • Few at 500' AGL
  • Broken at 1,100' AGL
  • Overcast at 1,700' AGL
Temperature Dewpoint
1°C / 34°F 1°C / 34°F
Humidity Altimeter Pressure
100% 29.62" Hg 1003 hPa